<?xml version="1.0" encoding="UTF-8" standalone="no" ?>
<gpx xmlns="http://www.topografix.com/GPX/1/1" xmlns:xsi="http://www.w3.org/2001/XMLSchema-instance" xsi:schemaLocation="http://www.topografix.com/GPX/1/1 http://www.topografix.com/GPX/1/1/gpx.xsd" version="1.1" creator="VisuGPX - https://www.visugpx.com">
  <metadata>
    <name>Goudourvielle_2_Versions 11.2 et 10.6km</name>
    <desc><![CDATA[Boucle de 11.2km avec possibilité de réduire à 10.6 en cours de parcours.
Alternance de chemins sous bois, travers champs et petites routes communales.]]></desc>
  </metadata>
  <trk>
    <name><![CDATA[NewTrack]]></name>
    <desc><![CDATA[Total: 11.2km]]></desc>
    <trkseg>
      <trkpt lat="43.55114" lon="1.10983">
        <ele>237.2</ele>
        <time>2020-02-10T16:10:42Z</time>
      </trkpt>
      <trkpt lat="43.55159" lon="1.11003">
        <ele>240.4</ele>
        <time>2020-02-10T16:11:20Z</time>
      </trkpt>
      <trkpt lat="43.55271" lon="1.11034">
        <ele>250.5</ele>
        <time>2020-02-10T16:12:51.759Z</time>
      </trkpt>
      <trkpt lat="43.55271" lon="1.11034">
        <ele>250.5</ele>
        <time>2020-02-10T16:12:51.776Z</time>
      </trkpt>
      <trkpt lat="43.55343" lon="1.11053">
        <ele>256.7</ele>
        <time>2020-02-10T16:13:50Z</time>
      </trkpt>
      <trkpt lat="43.5539" lon="1.11065">
        <ele>261.8</ele>
        <time>2020-02-10T16:14:29Z</time>
      </trkpt>
      <trkpt lat="43.55406" lon="1.11056">
        <ele>263.8</ele>
        <time>2020-02-10T16:14:42Z</time>
      </trkpt>
      <trkpt lat="43.55413" lon="1.10993">
        <ele>265.9</ele>
        <time>2020-02-10T16:15:19Z</time>
      </trkpt>
      <trkpt lat="43.55427" lon="1.10977">
        <ele>268.4</ele>
        <time>2020-02-10T16:15:34Z</time>
      </trkpt>
      <trkpt lat="43.5544" lon="1.10979">
        <ele>270.1</ele>
        <time>2020-02-10T16:15:44Z</time>
      </trkpt>
      <trkpt lat="43.55477" lon="1.11035">
        <ele>274.3</ele>
        <time>2020-02-10T16:16:28Z</time>
      </trkpt>
      <trkpt lat="43.555" lon="1.1106">
        <ele>275.8</ele>
        <time>2020-02-10T16:16:51Z</time>
      </trkpt>
      <trkpt lat="43.55516" lon="1.11061">
        <ele>276.8</ele>
        <time>2020-02-10T16:17:04Z</time>
      </trkpt>
      <trkpt lat="43.5557" lon="1.11048">
        <ele>281.3</ele>
        <time>2020-02-10T16:17:48Z</time>
      </trkpt>
      <trkpt lat="43.55618" lon="1.1104">
        <ele>286.8</ele>
        <time>2020-02-10T16:18:27Z</time>
      </trkpt>
      <trkpt lat="43.55659" lon="1.11047">
        <ele>290.1</ele>
        <time>2020-02-10T16:19:00Z</time>
      </trkpt>
      <trkpt lat="43.55681" lon="1.11049">
        <ele>291.5</ele>
        <time>2020-02-10T16:19:17Z</time>
      </trkpt>
      <trkpt lat="43.55756" lon="1.11002">
        <ele>294</ele>
        <time>2020-02-10T16:20:24Z</time>
      </trkpt>
      <trkpt lat="43.55838" lon="1.10978">
        <ele>293.6</ele>
        <time>2020-02-10T16:21:30.655Z</time>
      </trkpt>
      <trkpt lat="43.55917" lon="1.10955">
        <ele>294</ele>
        <time>2020-02-10T16:22:35.219Z</time>
      </trkpt>
      <trkpt lat="43.55919" lon="1.10954">
        <ele>294.1</ele>
        <time>2020-02-10T16:22:37Z</time>
      </trkpt>
      <trkpt lat="43.55942" lon="1.11086">
        <ele>296.9</ele>
        <time>2020-02-10T16:23:56Z</time>
      </trkpt>
      <trkpt lat="43.55958" lon="1.11213">
        <ele>301.2</ele>
        <time>2020-02-10T16:25:11Z</time>
      </trkpt>
      <trkpt lat="43.55956" lon="1.11297">
        <ele>300.7</ele>
        <time>2020-02-10T16:25:59Z</time>
      </trkpt>
      <trkpt lat="43.55942" lon="1.11398">
        <ele>302.6</ele>
        <time>2020-02-10T16:26:59Z</time>
      </trkpt>
      <trkpt lat="43.55939" lon="1.11466">
        <ele>304.8</ele>
        <time>2020-02-10T16:27:39Z</time>
      </trkpt>
      <trkpt lat="43.55955" lon="1.11531">
        <ele>305.3</ele>
        <time>2020-02-10T16:28:18Z</time>
      </trkpt>
      <trkpt lat="43.55997" lon="1.11584">
        <ele>301.4</ele>
        <time>2020-02-10T16:29:04Z</time>
      </trkpt>
      <trkpt lat="43.56014" lon="1.11651">
        <ele>298.8</ele>
        <time>2020-02-10T16:29:45Z</time>
      </trkpt>
      <trkpt lat="43.56007" lon="1.11717">
        <ele>299.2</ele>
        <time>2020-02-10T16:30:24Z</time>
      </trkpt>
      <trkpt lat="43.56011" lon="1.11764">
        <ele>298.4</ele>
        <time>2020-02-10T16:30:52Z</time>
      </trkpt>
      <trkpt lat="43.56018" lon="1.11822">
        <ele>298.5</ele>
        <time>2020-02-10T16:31:26Z</time>
      </trkpt>
      <trkpt lat="43.56012" lon="1.11876">
        <ele>299.6</ele>
        <time>2020-02-10T16:31:58Z</time>
      </trkpt>
      <trkpt lat="43.56009" lon="1.11921">
        <ele>299.7</ele>
        <time>2020-02-10T16:32:24Z</time>
      </trkpt>
      <trkpt lat="43.56074" lon="1.12024">
        <ele>298.7</ele>
        <time>2020-02-10T16:33:44Z</time>
      </trkpt>
      <trkpt lat="43.56155" lon="1.12091">
        <ele>300.7</ele>
        <time>2020-02-10T16:34:59Z</time>
      </trkpt>
      <trkpt lat="43.56236" lon="1.12166">
        <ele>301</ele>
        <time>2020-02-10T16:36:17Z</time>
      </trkpt>
      <trkpt lat="43.56281" lon="1.12224">
        <ele>299.6</ele>
        <time>2020-02-10T16:37:06Z</time>
      </trkpt>
      <trkpt lat="43.56354" lon="1.12256">
        <ele>290.8</ele>
        <time>2020-02-10T16:38:08Z</time>
      </trkpt>
      <trkpt lat="43.56385" lon="1.12282">
        <ele>285.4</ele>
        <time>2020-02-10T16:38:37Z</time>
      </trkpt>
      <trkpt lat="43.56396" lon="1.1232">
        <ele>282.2</ele>
        <time>2020-02-10T16:39:01Z</time>
      </trkpt>
      <trkpt lat="43.5639" lon="1.1235">
        <ele>281.6</ele>
        <time>2020-02-10T16:39:19Z</time>
      </trkpt>
      <trkpt lat="43.56378" lon="1.1241">
        <ele>276.6</ele>
        <time>2020-02-10T16:39:55Z</time>
      </trkpt>
      <trkpt lat="43.5651" lon="1.12292">
        <ele>264.3</ele>
        <time>2020-02-10T16:42:01.418Z</time>
      </trkpt>
      <trkpt lat="43.5651" lon="1.12292">
        <ele>264.3</ele>
        <time>2020-02-10T16:42:01.437Z</time>
      </trkpt>
      <trkpt lat="43.56578" lon="1.12231">
        <ele>257</ele>
        <time>2020-02-10T16:43:06.350Z</time>
      </trkpt>
      <trkpt lat="43.56617" lon="1.12196">
        <ele>253.6</ele>
        <time>2020-02-10T16:43:44Z</time>
      </trkpt>
      <trkpt lat="43.5665" lon="1.12131">
        <ele>252.4</ele>
        <time>2020-02-10T16:44:30Z</time>
      </trkpt>
      <trkpt lat="43.56704" lon="1.12116">
        <ele>248.9</ele>
        <time>2020-02-10T16:45:14Z</time>
      </trkpt>
      <trkpt lat="43.56763" lon="1.12119">
        <ele>248</ele>
        <time>2020-02-10T16:46:01Z</time>
      </trkpt>
      <trkpt lat="43.56857" lon="1.12054">
        <ele>251.9</ele>
        <time>2020-02-10T16:47:25.293Z</time>
      </trkpt>
      <trkpt lat="43.56857" lon="1.12054">
        <ele>251.9</ele>
        <time>2020-02-10T16:47:25.315Z</time>
      </trkpt>
      <trkpt lat="43.5693" lon="1.12004">
        <ele>256.7</ele>
        <time>2020-02-10T16:48:30.137Z</time>
      </trkpt>
      <trkpt lat="43.5695" lon="1.1199">
        <ele>257.7</ele>
        <time>2020-02-10T16:48:48Z</time>
      </trkpt>
      <trkpt lat="43.5706" lon="1.11932">
        <ele>256.7</ele>
        <time>2020-02-10T16:50:23Z</time>
      </trkpt>
      <trkpt lat="43.57153" lon="1.11893">
        <ele>252</ele>
        <time>2020-02-10T16:51:41Z</time>
      </trkpt>
      <trkpt lat="43.57191" lon="1.11885">
        <ele>250</ele>
        <time>2020-02-10T16:52:11Z</time>
      </trkpt>
      <trkpt lat="43.57284" lon="1.11951">
        <ele>252.5</ele>
        <time>2020-02-10T16:53:35Z</time>
      </trkpt>
      <trkpt lat="43.57304" lon="1.1193">
        <ele>251.9</ele>
        <time>2020-02-10T16:53:55Z</time>
      </trkpt>
      <trkpt lat="43.57365" lon="1.11906">
        <ele>255.7</ele>
        <time>2020-02-10T16:54:46Z</time>
      </trkpt>
      <trkpt lat="43.57427" lon="1.11831">
        <ele>258.2</ele>
        <time>2020-02-10T16:55:52Z</time>
      </trkpt>
      <trkpt lat="43.57521" lon="1.11808">
        <ele>245.9</ele>
        <time>2020-02-10T16:57:08.409Z</time>
      </trkpt>
      <trkpt lat="43.57521" lon="1.11808">
        <ele>245.9</ele>
        <time>2020-02-10T16:57:08.413Z</time>
      </trkpt>
      <trkpt lat="43.57542" lon="1.11803">
        <ele>245.2</ele>
        <time>2020-02-10T16:57:25Z</time>
      </trkpt>
      <trkpt lat="43.5766" lon="1.11697">
        <ele>248.3</ele>
        <time>2020-02-10T16:59:18.559Z</time>
      </trkpt>
      <trkpt lat="43.57671" lon="1.11687">
        <ele>248.3</ele>
        <time>2020-02-10T16:59:29Z</time>
      </trkpt>
      <trkpt lat="43.57699" lon="1.11682">
        <ele>246.5</ele>
        <time>2020-02-10T16:59:51Z</time>
      </trkpt>
      <trkpt lat="43.57743" lon="1.1168">
        <ele>241</ele>
        <time>2020-02-10T17:00:27Z</time>
      </trkpt>
      <trkpt lat="43.5779" lon="1.11664">
        <ele>241.9</ele>
        <time>2020-02-10T17:01:05Z</time>
      </trkpt>
      <trkpt lat="43.57808" lon="1.1164">
        <ele>242.6</ele>
        <time>2020-02-10T17:01:25Z</time>
      </trkpt>
      <trkpt lat="43.57818" lon="1.11616">
        <ele>244.3</ele>
        <time>2020-02-10T17:01:41Z</time>
      </trkpt>
      <trkpt lat="43.57823" lon="1.11585">
        <ele>244.2</ele>
        <time>2020-02-10T17:02:00Z</time>
      </trkpt>
      <trkpt lat="43.57846" lon="1.11508">
        <ele>245.1</ele>
        <time>2020-02-10T17:02:48Z</time>
      </trkpt>
      <trkpt lat="43.57849" lon="1.11465">
        <ele>244.9</ele>
        <time>2020-02-10T17:03:13Z</time>
      </trkpt>
      <trkpt lat="43.5786" lon="1.11405">
        <ele>245.8</ele>
        <time>2020-02-10T17:03:49Z</time>
      </trkpt>
      <trkpt lat="43.57871" lon="1.11376">
        <ele>245.6</ele>
        <time>2020-02-10T17:04:08Z</time>
      </trkpt>
      <trkpt lat="43.57892" lon="1.11347">
        <ele>247.7</ele>
        <time>2020-02-10T17:04:32Z</time>
      </trkpt>
      <trkpt lat="43.57924" lon="1.11321">
        <ele>248.1</ele>
        <time>2020-02-10T17:05:02Z</time>
      </trkpt>
      <trkpt lat="43.57953" lon="1.11299">
        <ele>244.6</ele>
        <time>2020-02-10T17:05:28Z</time>
      </trkpt>
      <trkpt lat="43.57967" lon="1.11278">
        <ele>242.4</ele>
        <time>2020-02-10T17:05:44Z</time>
      </trkpt>
      <trkpt lat="43.57894" lon="1.11221">
        <ele>244.4</ele>
        <time>2020-02-10T17:06:52.104Z</time>
      </trkpt>
      <trkpt lat="43.57885" lon="1.11214">
        <ele>244.6</ele>
        <time>2020-02-10T17:07:00Z</time>
      </trkpt>
      <trkpt lat="43.57879" lon="1.11204">
        <ele>244.2</ele>
        <time>2020-02-10T17:07:08Z</time>
      </trkpt>
      <trkpt lat="43.57877" lon="1.1118">
        <ele>243.8</ele>
        <time>2020-02-10T17:07:22Z</time>
      </trkpt>
      <trkpt lat="43.57883" lon="1.1103">
        <ele>239.5</ele>
        <time>2020-02-10T17:08:49Z</time>
      </trkpt>
      <trkpt lat="43.57882" lon="1.11001">
        <ele>238.5</ele>
        <time>2020-02-10T17:09:06Z</time>
      </trkpt>
      <trkpt lat="43.57872" lon="1.1093">
        <ele>236.4</ele>
        <time>2020-02-10T17:09:48Z</time>
      </trkpt>
      <trkpt lat="43.5787" lon="1.10901">
        <ele>235.4</ele>
        <time>2020-02-10T17:10:05Z</time>
      </trkpt>
      <trkpt lat="43.57864" lon="1.10886">
        <ele>234.8</ele>
        <time>2020-02-10T17:10:15Z</time>
      </trkpt>
      <trkpt lat="43.57816" lon="1.10893">
        <ele>230</ele>
        <time>2020-02-10T17:10:53Z</time>
      </trkpt>
      <trkpt lat="43.57787" lon="1.10897">
        <ele>223.2</ele>
        <time>2020-02-10T17:11:17Z</time>
      </trkpt>
      <trkpt lat="43.57773" lon="1.10903">
        <ele>219.9</ele>
        <time>2020-02-10T17:11:29Z</time>
      </trkpt>
      <trkpt lat="43.57769" lon="1.10904">
        <ele>219.2</ele>
        <time>2020-02-10T17:11:31Z</time>
      </trkpt>
      <trkpt lat="43.57764" lon="1.10905">
        <ele>218.1</ele>
        <time>2020-02-10T17:11:36Z</time>
      </trkpt>
      <trkpt lat="43.57758" lon="1.10908">
        <ele>216.7</ele>
        <time>2020-02-10T17:11:41Z</time>
      </trkpt>
      <trkpt lat="43.57754" lon="1.10907">
        <ele>215.8</ele>
        <time>2020-02-10T17:11:44Z</time>
      </trkpt>
      <trkpt lat="43.5775" lon="1.10906">
        <ele>215</ele>
        <time>2020-02-10T17:11:47Z</time>
      </trkpt>
      <trkpt lat="43.57723" lon="1.10902">
        <ele>210.1</ele>
        <time>2020-02-10T17:12:09Z</time>
      </trkpt>
      <trkpt lat="43.57658" lon="1.10864">
        <ele>202.6</ele>
        <time>2020-02-10T17:13:06Z</time>
      </trkpt>
      <trkpt lat="43.5763" lon="1.10833">
        <ele>204.6</ele>
        <time>2020-02-10T17:13:35Z</time>
      </trkpt>
      <trkpt lat="43.57595" lon="1.10802">
        <ele>210.3</ele>
        <time>2020-02-10T17:14:08Z</time>
      </trkpt>
      <trkpt lat="43.57572" lon="1.10777">
        <ele>214.4</ele>
        <time>2020-02-10T17:14:31Z</time>
      </trkpt>
      <trkpt lat="43.57545" lon="1.10733">
        <ele>220.3</ele>
        <time>2020-02-10T17:15:05Z</time>
      </trkpt>
      <trkpt lat="43.57534" lon="1.10721">
        <ele>222.1</ele>
        <time>2020-02-10T17:15:16Z</time>
      </trkpt>
      <trkpt lat="43.57466" lon="1.10707">
        <ele>214.1</ele>
        <time>2020-02-10T17:16:11Z</time>
      </trkpt>
      <trkpt lat="43.5745" lon="1.10696">
        <ele>212.5</ele>
        <time>2020-02-10T17:16:26Z</time>
      </trkpt>
      <trkpt lat="43.5744" lon="1.10668">
        <ele>211.2</ele>
        <time>2020-02-10T17:16:44Z</time>
      </trkpt>
      <trkpt lat="43.57432" lon="1.10641">
        <ele>211</ele>
        <time>2020-02-10T17:17:01Z</time>
      </trkpt>
      <trkpt lat="43.57421" lon="1.10618">
        <ele>209.6</ele>
        <time>2020-02-10T17:17:17Z</time>
      </trkpt>
      <trkpt lat="43.57385" lon="1.10599">
        <ele>210.5</ele>
        <time>2020-02-10T17:17:47Z</time>
      </trkpt>
      <trkpt lat="43.57354" lon="1.10593">
        <ele>211.6</ele>
        <time>2020-02-10T17:18:13Z</time>
      </trkpt>
      <trkpt lat="43.57323" lon="1.1059">
        <ele>211.8</ele>
        <time>2020-02-10T17:18:37Z</time>
      </trkpt>
      <trkpt lat="43.57274" lon="1.10583">
        <ele>210.1</ele>
        <time>2020-02-10T17:19:16Z</time>
      </trkpt>
      <trkpt lat="43.57258" lon="1.10574">
        <ele>210</ele>
        <time>2020-02-10T17:19:31Z</time>
      </trkpt>
      <trkpt lat="43.57248" lon="1.10563">
        <ele>209.7</ele>
        <time>2020-02-10T17:19:41Z</time>
      </trkpt>
      <trkpt lat="43.57204" lon="1.10565">
        <ele>214.4</ele>
        <time>2020-02-10T17:20:16Z</time>
      </trkpt>
      <trkpt lat="43.57118" lon="1.10621">
        <ele>226.3</ele>
        <time>2020-02-10T17:21:32Z</time>
      </trkpt>
      <trkpt lat="43.57105" lon="1.10629">
        <ele>227</ele>
        <time>2020-02-10T17:21:43Z</time>
      </trkpt>
      <trkpt lat="43.57098" lon="1.10635">
        <ele>227</ele>
        <time>2020-02-10T17:21:50Z</time>
      </trkpt>
      <trkpt lat="43.57089" lon="1.10632">
        <ele>227</ele>
        <time>2020-02-10T17:21:58Z</time>
      </trkpt>
      <trkpt lat="43.57063" lon="1.10636">
        <ele>224</ele>
        <time>2020-02-10T17:22:19Z</time>
      </trkpt>
      <trkpt lat="43.57041" lon="1.10642">
        <ele>219.8</ele>
        <time>2020-02-10T17:22:37Z</time>
      </trkpt>
      <trkpt lat="43.57021" lon="1.10643">
        <ele>215.6</ele>
        <time>2020-02-10T17:22:53Z</time>
      </trkpt>
      <trkpt lat="43.56972" lon="1.10642">
        <ele>209.1</ele>
        <time>2020-02-10T17:23:32Z</time>
      </trkpt>
      <trkpt lat="43.56946" lon="1.10632">
        <ele>210.1</ele>
        <time>2020-02-10T17:23:53Z</time>
      </trkpt>
      <trkpt lat="43.56923" lon="1.10615">
        <ele>210.1</ele>
        <time>2020-02-10T17:24:14Z</time>
      </trkpt>
      <trkpt lat="43.56903" lon="1.10612">
        <ele>209.1</ele>
        <time>2020-02-10T17:24:30Z</time>
      </trkpt>
      <trkpt lat="43.5688" lon="1.10592">
        <ele>206.4</ele>
        <time>2020-02-10T17:24:52Z</time>
      </trkpt>
      <trkpt lat="43.56856" lon="1.10594">
        <ele>207.8</ele>
        <time>2020-02-10T17:25:11Z</time>
      </trkpt>
      <trkpt lat="43.5683" lon="1.10604">
        <ele>209.6</ele>
        <time>2020-02-10T17:25:33Z</time>
      </trkpt>
      <trkpt lat="43.56799" lon="1.10597">
        <ele>212.9</ele>
        <time>2020-02-10T17:25:58Z</time>
      </trkpt>
      <trkpt lat="43.56769" lon="1.10568">
        <ele>216.7</ele>
        <time>2020-02-10T17:26:27Z</time>
      </trkpt>
      <trkpt lat="43.56736" lon="1.10556">
        <ele>217</ele>
        <time>2020-02-10T17:26:55Z</time>
      </trkpt>
      <trkpt lat="43.56724" lon="1.10552">
        <ele>216.7</ele>
        <time>2020-02-10T17:27:05Z</time>
      </trkpt>
      <trkpt lat="43.56685" lon="1.10562">
        <ele>217.9</ele>
        <time>2020-02-10T17:27:36Z</time>
      </trkpt>
      <trkpt lat="43.56606" lon="1.10538">
        <ele>227.1</ele>
        <time>2020-02-10T17:28:41Z</time>
      </trkpt>
      <trkpt lat="43.56495" lon="1.10527">
        <ele>241.8</ele>
        <time>2020-02-10T17:30:10Z</time>
      </trkpt>
      <trkpt lat="43.56514" lon="1.10472">
        <ele>242</ele>
        <time>2020-02-10T17:30:46Z</time>
      </trkpt>
      <trkpt lat="43.56539" lon="1.10416">
        <ele>241.6</ele>
        <time>2020-02-10T17:31:24Z</time>
      </trkpt>
      <trkpt lat="43.56578" lon="1.10371">
        <ele>240</ele>
        <time>2020-02-10T17:32:05Z</time>
      </trkpt>
      <trkpt lat="43.56628" lon="1.10282">
        <ele>237.3</ele>
        <time>2020-02-10T17:33:10Z</time>
      </trkpt>
      <trkpt lat="43.56685" lon="1.10209">
        <ele>235.9</ele>
        <time>2020-02-10T17:34:13Z</time>
      </trkpt>
      <trkpt lat="43.5672" lon="1.10177">
        <ele>237.4</ele>
        <time>2020-02-10T17:34:46Z</time>
      </trkpt>
      <trkpt lat="43.56775" lon="1.10153">
        <ele>235.1</ele>
        <time>2020-02-10T17:35:33Z</time>
      </trkpt>
      <trkpt lat="43.56888" lon="1.10111">
        <ele>229</ele>
        <time>2020-02-10T17:37:06.466Z</time>
      </trkpt>
      <trkpt lat="43.56901" lon="1.10106">
        <ele>228.1</ele>
        <time>2020-02-10T17:37:17Z</time>
      </trkpt>
      <trkpt lat="43.57016" lon="1.09976">
        <ele>228.8</ele>
        <time>2020-02-10T17:39:15.930Z</time>
      </trkpt>
      <trkpt lat="43.57016" lon="1.09976">
        <ele>228.8</ele>
        <time>2020-02-10T17:39:15.949Z</time>
      </trkpt>
      <trkpt lat="43.57043" lon="1.09947">
        <ele>228.4</ele>
        <time>2020-02-10T17:39:43Z</time>
      </trkpt>
      <trkpt lat="43.57117" lon="1.09838">
        <ele>227.3</ele>
        <time>2020-02-10T17:41:10Z</time>
      </trkpt>
      <trkpt lat="43.57156" lon="1.09757">
        <ele>224.5</ele>
        <time>2020-02-10T17:42:07Z</time>
      </trkpt>
      <trkpt lat="43.5711" lon="1.09756">
        <ele>223.2</ele>
        <time>2020-02-10T17:42:44Z</time>
      </trkpt>
      <trkpt lat="43.57075" lon="1.0976">
        <ele>219.4</ele>
        <time>2020-02-10T17:43:12Z</time>
      </trkpt>
      <trkpt lat="43.57024" lon="1.09769">
        <ele>212.7</ele>
        <time>2020-02-10T17:43:53Z</time>
      </trkpt>
      <trkpt lat="43.56995" lon="1.09761">
        <ele>209</ele>
        <time>2020-02-10T17:44:17Z</time>
      </trkpt>
      <trkpt lat="43.56961" lon="1.0974">
        <ele>206</ele>
        <time>2020-02-10T17:44:46Z</time>
      </trkpt>
      <trkpt lat="43.56931" lon="1.09706">
        <ele>204.9</ele>
        <time>2020-02-10T17:45:17Z</time>
      </trkpt>
      <trkpt lat="43.56904" lon="1.09686">
        <ele>203.6</ele>
        <time>2020-02-10T17:45:42Z</time>
      </trkpt>
      <trkpt lat="43.5687" lon="1.09677">
        <ele>202.5</ele>
        <time>2020-02-10T17:46:09Z</time>
      </trkpt>
      <trkpt lat="43.56829" lon="1.09677">
        <ele>204.4</ele>
        <time>2020-02-10T17:46:43Z</time>
      </trkpt>
      <trkpt lat="43.5679" lon="1.09686">
        <ele>210</ele>
        <time>2020-02-10T17:47:14Z</time>
      </trkpt>
      <trkpt lat="43.56749" lon="1.09698">
        <ele>214</ele>
        <time>2020-02-10T17:47:48Z</time>
      </trkpt>
      <trkpt lat="43.56712" lon="1.09749">
        <ele>211.7</ele>
        <time>2020-02-10T17:48:30Z</time>
      </trkpt>
      <trkpt lat="43.56701" lon="1.09762">
        <ele>210.3</ele>
        <time>2020-02-10T17:48:41Z</time>
      </trkpt>
      <trkpt lat="43.56689" lon="1.0977">
        <ele>208.7</ele>
        <time>2020-02-10T17:48:52Z</time>
      </trkpt>
      <trkpt lat="43.5665" lon="1.0978">
        <ele>204.3</ele>
        <time>2020-02-10T17:49:24Z</time>
      </trkpt>
      <trkpt lat="43.56615" lon="1.09777">
        <ele>203</ele>
        <time>2020-02-10T17:49:52Z</time>
      </trkpt>
      <trkpt lat="43.56576" lon="1.09734">
        <ele>209.2</ele>
        <time>2020-02-10T17:50:32Z</time>
      </trkpt>
      <trkpt lat="43.5656" lon="1.09708">
        <ele>213.4</ele>
        <time>2020-02-10T17:50:51Z</time>
      </trkpt>
      <trkpt lat="43.56542" lon="1.09688">
        <ele>216.7</ele>
        <time>2020-02-10T17:51:10Z</time>
      </trkpt>
      <trkpt lat="43.56522" lon="1.09683">
        <ele>219.2</ele>
        <time>2020-02-10T17:51:26Z</time>
      </trkpt>
      <trkpt lat="43.56446" lon="1.09684">
        <ele>229.7</ele>
        <time>2020-02-10T17:52:27Z</time>
      </trkpt>
      <trkpt lat="43.56356" lon="1.09731">
        <ele>234</ele>
        <time>2020-02-10T17:53:44Z</time>
      </trkpt>
      <trkpt lat="43.5624" lon="1.09761">
        <ele>236.7</ele>
        <time>2020-02-10T17:55:19Z</time>
      </trkpt>
      <trkpt lat="43.56151" lon="1.09798">
        <ele>239.4</ele>
        <time>2020-02-10T17:56:32.738Z</time>
      </trkpt>
      <trkpt lat="43.56088" lon="1.09825">
        <ele>242.3</ele>
        <time>2020-02-10T17:57:25Z</time>
      </trkpt>
      <trkpt lat="43.56005" lon="1.09835">
        <ele>248.6</ele>
        <time>2020-02-10T17:58:32Z</time>
      </trkpt>
      <trkpt lat="43.5595" lon="1.09817">
        <ele>253.8</ele>
        <time>2020-02-10T17:59:17Z</time>
      </trkpt>
      <trkpt lat="43.55912" lon="1.098">
        <ele>258.9</ele>
        <time>2020-02-10T17:59:49Z</time>
      </trkpt>
      <trkpt lat="43.55844" lon="1.09701">
        <ele>270.1</ele>
        <time>2020-02-10T18:01:09Z</time>
      </trkpt>
      <trkpt lat="43.55802" lon="1.09887">
        <ele>273.4</ele>
        <time>2020-02-10T18:03:02.95Z</time>
      </trkpt>
      <trkpt lat="43.558" lon="1.09897">
        <ele>273.2</ele>
        <time>2020-02-10T18:03:08Z</time>
      </trkpt>
      <trkpt lat="43.55772" lon="1.10038">
        <ele>272.3</ele>
        <time>2020-02-10T18:04:33Z</time>
      </trkpt>
      <trkpt lat="43.55765" lon="1.1017">
        <ele>269.9</ele>
        <time>2020-02-10T18:05:50Z</time>
      </trkpt>
      <trkpt lat="43.55758" lon="1.10211">
        <ele>271.5</ele>
        <time>2020-02-10T18:06:14Z</time>
      </trkpt>
      <trkpt lat="43.55761" lon="1.10244">
        <ele>271</ele>
        <time>2020-02-10T18:06:33Z</time>
      </trkpt>
      <trkpt lat="43.55769" lon="1.10312">
        <ele>269.9</ele>
        <time>2020-02-10T18:07:13Z</time>
      </trkpt>
      <trkpt lat="43.55778" lon="1.10405">
        <ele>268.9</ele>
        <time>2020-02-10T18:08:08Z</time>
      </trkpt>
      <trkpt lat="43.5578" lon="1.10428">
        <ele>268.7</ele>
        <time>2020-02-10T18:08:21Z</time>
      </trkpt>
      <trkpt lat="43.55778" lon="1.10461">
        <ele>268.4</ele>
        <time>2020-02-10T18:08:41Z</time>
      </trkpt>
      <trkpt lat="43.55816" lon="1.10651">
        <ele>275.1</ele>
        <time>2020-02-10T18:10:35.97Z</time>
      </trkpt>
      <trkpt lat="43.55816" lon="1.10651">
        <ele>275.1</ele>
        <time>2020-02-10T18:10:35.113Z</time>
      </trkpt>
      <trkpt lat="43.55838" lon="1.10758">
        <ele>282.2</ele>
        <time>2020-02-10T18:11:39.729Z</time>
      </trkpt>
      <trkpt lat="43.5585" lon="1.10818">
        <ele>287.8</ele>
        <time>2020-02-10T18:12:16Z</time>
      </trkpt>
      <trkpt lat="43.55872" lon="1.1085">
        <ele>291.7</ele>
        <time>2020-02-10T18:12:42Z</time>
      </trkpt>
      <trkpt lat="43.55909" lon="1.10881">
        <ele>293.9</ele>
        <time>2020-02-10T18:13:16Z</time>
      </trkpt>
      <trkpt lat="43.55922" lon="1.10936">
        <ele>294.2</ele>
        <time>2020-02-10T18:13:50Z</time>
      </trkpt>
      <trkpt lat="43.55794" lon="1.10973">
        <ele>294.6</ele>
        <time>2020-02-10T18:15:34Z</time>
      </trkpt>
      <trkpt lat="43.55759" lon="1.10988">
        <ele>294</ele>
        <time>2020-02-10T18:16:04Z</time>
      </trkpt>
      <trkpt lat="43.55729" lon="1.11006">
        <ele>294.6</ele>
        <time>2020-02-10T18:16:30Z</time>
      </trkpt>
      <trkpt lat="43.55692" lon="1.11025">
        <ele>293.1</ele>
        <time>2020-02-10T18:17:01Z</time>
      </trkpt>
      <trkpt lat="43.55677" lon="1.11038">
        <ele>292.2</ele>
        <time>2020-02-10T18:17:16Z</time>
      </trkpt>
      <trkpt lat="43.55654" lon="1.11035">
        <ele>290.9</ele>
        <time>2020-02-10T18:17:34Z</time>
      </trkpt>
      <trkpt lat="43.55615" lon="1.11025">
        <ele>288.7</ele>
        <time>2020-02-10T18:18:06Z</time>
      </trkpt>
      <trkpt lat="43.5559" lon="1.11033">
        <ele>285.6</ele>
        <time>2020-02-10T18:18:27Z</time>
      </trkpt>
      <trkpt lat="43.55538" lon="1.11046">
        <ele>279.4</ele>
        <time>2020-02-10T18:19:08Z</time>
      </trkpt>
      <trkpt lat="43.55514" lon="1.11048">
        <ele>277.5</ele>
        <time>2020-02-10T18:19:28Z</time>
      </trkpt>
      <trkpt lat="43.5549" lon="1.11033">
        <ele>275.8</ele>
        <time>2020-02-10T18:19:49Z</time>
      </trkpt>
      <trkpt lat="43.55476" lon="1.11013">
        <ele>274.5</ele>
        <time>2020-02-10T18:20:05Z</time>
      </trkpt>
      <trkpt lat="43.55458" lon="1.10986">
        <ele>272.5</ele>
        <time>2020-02-10T18:20:26Z</time>
      </trkpt>
      <trkpt lat="43.55444" lon="1.10971">
        <ele>271</ele>
        <time>2020-02-10T18:20:41Z</time>
      </trkpt>
      <trkpt lat="43.55427" lon="1.10968">
        <ele>268.4</ele>
        <time>2020-02-10T18:20:55Z</time>
      </trkpt>
      <trkpt lat="43.5541" lon="1.10978">
        <ele>265.9</ele>
        <time>2020-02-10T18:21:09Z</time>
      </trkpt>
      <trkpt lat="43.55406" lon="1.10995">
        <ele>265</ele>
        <time>2020-02-10T18:21:20Z</time>
      </trkpt>
      <trkpt lat="43.55403" lon="1.11024">
        <ele>264.1</ele>
        <time>2020-02-10T18:21:37Z</time>
      </trkpt>
      <trkpt lat="43.55399" lon="1.11041">
        <ele>263.2</ele>
        <time>2020-02-10T18:21:47Z</time>
      </trkpt>
      <trkpt lat="43.55389" lon="1.11051">
        <ele>262</ele>
        <time>2020-02-10T18:21:57Z</time>
      </trkpt>
      <trkpt lat="43.5537" lon="1.1105">
        <ele>259.4</ele>
        <time>2020-02-10T18:22:12Z</time>
      </trkpt>
      <trkpt lat="43.55318" lon="1.11038">
        <ele>254.4</ele>
        <time>2020-02-10T18:22:54Z</time>
      </trkpt>
      <trkpt lat="43.55191" lon="1.11002">
        <ele>242.8</ele>
        <time>2020-02-10T18:24:37.867Z</time>
      </trkpt>
      <trkpt lat="43.55191" lon="1.11002">
        <ele>242.8</ele>
        <time>2020-02-10T18:24:37.889Z</time>
      </trkpt>
      <trkpt lat="43.55164" lon="1.10994">
        <ele>240.8</ele>
        <time>2020-02-10T18:25:00Z</time>
      </trkpt>
      <trkpt lat="43.55149" lon="1.10988">
        <ele>239.7</ele>
        <time>2020-02-10T18:25:13Z</time>
      </trkpt>
      <trkpt lat="43.55134" lon="1.10981">
        <ele>238.6</ele>
        <time>2020-02-10T18:25:26Z</time>
      </trkpt>
      <trkpt lat="43.55116" lon="1.10974">
        <ele>237.4</ele>
        <time>2020-02-10T18:25:40Z</time>
      </trkpt>
    </trkseg>
  </trk>
</gpx>